createdAt,value
2022-10-11T00:00:42.621Z,3.93
2022-10-11T00:03:10.634Z,4.10
2022-10-11T00:05:38.999Z,4.33
2022-10-11T00:08:07.318Z,4.40
2022-10-11T00:10:35.642Z,4.43
2022-10-11T00:13:04.354Z,4.30
2022-10-11T00:15:33.826Z,4.00
2022-10-11T00:18:05.292Z,4.43
2022-10-11T00:20:33.557Z,4.40
2022-10-11T00:23:01.607Z,3.60
2022-10-11T00:25:29.663Z,4.27
2022-10-11T00:27:57.644Z,3.47
2022-10-11T00:30:25.736Z,4.33
2022-10-11T00:32:55.166Z,3.87
2022-10-11T00:35:23.193Z,3.70
2022-10-11T00:37:51.181Z,3.73
2022-10-11T00:40:21.921Z,3.77
2022-10-11T00:42:49.935Z,3.50
2022-10-11T00:45:54.594Z,3.50
2022-10-11T00:48:30.477Z,3.37
2022-10-11T00:51:01.463Z,3.83
2022-10-11T00:53:31.273Z,3.73
2022-10-11T00:56:04.256Z,3.70
2022-10-11T00:58:35.032Z,4.03
2022-10-11T01:01:03.727Z,3.40
2022-10-11T01:03:36.351Z,3.50
2022-10-11T01:06:05.294Z,3.47
2022-10-11T01:08:33.751Z,3.07
2022-10-11T01:11:02.169Z,3.40
2022-10-11T01:13:42.373Z,3.07
2022-10-11T01:16:16.815Z,2.60
2022-10-11T01:18:54.197Z,3.20
2022-10-11T01:21:34.862Z,3.20
2022-10-11T01:24:20.213Z,3.03
2022-10-11T01:27:06.814Z,2.63
2022-10-11T01:29:46.872Z,3.00
2022-10-11T01:32:18.454Z,2.60
2022-10-11T01:34:55.882Z,3.47
2022-10-11T01:37:28.289Z,3.10
2022-10-11T01:40:01.813Z,2.43
2022-10-11T01:42:31.028Z,3.13
2022-10-11T01:45:00.404Z,2.30
2022-10-11T01:47:29.946Z,2.60
2022-10-11T01:49:59.684Z,2.40
2022-10-11T01:52:29.499Z,2.10
2022-10-11T01:55:13.131Z,2.63
2022-10-11T01:57:55.292Z,2.30
2022-10-11T02:00:25.722Z,2.33
2022-10-11T02:03:07.943Z,2.03
2022-10-11T02:05:44.297Z,2.00
2022-10-11T02:08:19.156Z,2.33
2022-10-11T02:10:53.010Z,1.83
2022-10-11T02:13:26.844Z,2.00
2022-10-11T02:15:56.781Z,2.30
2022-10-11T02:18:28.644Z,1.67
2022-10-11T02:20:58.487Z,2.07
2022-10-11T02:23:32.473Z,1.67
2022-10-11T02:26:04.717Z,1.50
2022-10-11T02:28:37.524Z,1.97
2022-10-11T02:31:08.032Z,2.50
2022-10-11T02:33:44.483Z,1.70
2022-10-11T02:36:18.094Z,1.70
2022-10-11T02:38:51.578Z,1.37
2022-10-11T02:41:26.057Z,2.13
2022-10-11T02:44:00.364Z,1.47
2022-10-11T02:46:30.535Z,1.73
2022-10-11T02:49:00.895Z,1.77
2022-10-11T02:51:31.965Z,1.90
2022-10-11T02:54:00.494Z,1.47
2022-10-11T02:56:28.518Z,1.90
2022-10-11T02:58:56.580Z,1.70
2022-10-11T03:01:24.714Z,1.47
2022-10-11T03:03:52.780Z,1.70
2022-10-11T03:06:22.483Z,1.50
2022-10-11T03:08:50.449Z,1.50
2022-10-11T03:11:18.510Z,1.60
2022-10-11T03:13:46.566Z,1.50
2022-10-11T03:16:15.057Z,1.57
2022-10-11T03:18:43.538Z,1.50
2022-10-11T03:21:11.781Z,1.40
2022-10-11T03:23:42.543Z,1.60
2022-10-11T03:26:10.673Z,1.40
2022-10-11T03:28:38.730Z,1.40
2022-10-11T03:31:07.068Z,1.50
2022-10-11T03:33:35.098Z,1.47
2022-10-11T03:36:03.559Z,1.57
2022-10-11T03:38:31.837Z,1.80
2022-10-11T03:41:01.254Z,1.77
2022-10-11T03:43:29.352Z,2.00
2022-10-11T03:45:57.373Z,1.53
2022-10-11T03:48:25.405Z,1.50
2022-10-11T03:50:53.686Z,2.70
2022-10-11T03:53:21.695Z,3.80
2022-10-11T03:55:53.515Z,3.80
2022-10-11T03:58:23.611Z,4.80
2022-10-11T04:00:52.829Z,4.33
2022-10-11T04:03:21.034Z,4.03
2022-10-11T04:05:49.111Z,3.93
2022-10-11T04:08:17.125Z,4.43
2022-10-11T04:10:45.151Z,4.00
2022-10-11T04:13:13.463Z,3.70
2022-10-11T04:15:42.892Z,4.23
2022-10-11T04:18:10.964Z,3.83
2022-10-11T04:20:38.960Z,3.00
2022-10-11T04:23:07.079Z,2.27
2022-10-11T04:25:35.084Z,2.60
2022-10-11T04:28:03.219Z,2.50
2022-10-11T04:30:31.213Z,2.10
2022-10-11T04:33:00.623Z,3.37
2022-10-11T04:35:28.663Z,3.13
2022-10-11T04:37:56.631Z,3.50
2022-10-11T04:40:24.936Z,3.20
2022-10-11T04:42:53.726Z,4.20
2022-10-11T04:45:22.178Z,3.40
2022-10-11T04:47:50.141Z,3.27
2022-10-11T04:50:19.778Z,3.23
2022-10-11T04:52:47.799Z,2.60
2022-10-11T04:55:15.842Z,2.80
2022-10-11T04:57:43.830Z,2.40
2022-10-11T05:00:13.155Z,3.00
2022-10-11T05:02:41.152Z,2.73
2022-10-11T05:05:10.204Z,2.87
2022-10-11T05:07:39.544Z,2.30
2022-10-11T05:10:09.183Z,2.33
2022-10-11T05:12:37.127Z,2.80
2022-10-11T05:15:06.115Z,2.57
2022-10-11T05:17:34.172Z,2.93
2022-10-11T05:20:02.171Z,2.53
2022-10-11T05:22:30.144Z,2.43
2022-10-11T05:24:59.527Z,2.20
2022-10-11T05:27:27.531Z,2.00
2022-10-11T05:29:55.552Z,2.13
2022-10-11T05:32:26.703Z,2.07
2022-10-11T05:34:55.932Z,2.13
2022-10-11T05:37:24.378Z,2.23
2022-10-11T05:39:53.223Z,2.17
2022-10-11T05:42:22.555Z,1.67
2022-10-11T05:44:50.523Z,1.70
2022-10-11T05:47:18.498Z,1.63
2022-10-11T05:49:46.468Z,1.70
2022-10-11T05:52:19.726Z,1.73
2022-10-11T05:54:47.769Z,1.80
2022-10-11T05:57:16.003Z,2.00
2022-10-11T05:59:45.428Z,2.07
2022-10-11T06:02:14.450Z,2.07
2022-10-11T06:04:43.106Z,1.80
2022-10-11T06:07:11.116Z,1.97
2022-10-11T06:09:39.732Z,2.60
2022-10-11T06:12:08.171Z,1.93
2022-10-11T06:14:36.901Z,2.03
2022-10-11T06:17:06.302Z,2.40
2022-10-11T06:19:34.285Z,2.00
2022-10-11T06:22:02.325Z,1.97
2022-10-11T06:24:30.270Z,2.13
2022-10-11T06:26:58.280Z,2.23
2022-10-11T06:29:26.308Z,2.10
2022-10-11T06:31:54.310Z,2.20
2022-10-11T06:34:23.811Z,2.40
2022-10-11T06:36:51.982Z,2.90
2022-10-11T06:39:20.093Z,3.10
2022-10-11T06:41:48.093Z,3.30
2022-10-11T06:44:16.739Z,2.90
2022-10-11T06:46:45.005Z,2.90
2022-10-11T06:49:13.084Z,2.70
2022-10-11T06:51:42.491Z,3.20
2022-10-11T06:54:10.633Z,3.20
2022-10-11T06:56:39.090Z,3.43
2022-10-11T06:59:07.350Z,3.50
2022-10-11T07:01:35.464Z,3.70
2022-10-11T07:04:03.619Z,4.17
2022-10-11T07:06:32.334Z,4.10
2022-10-11T07:09:02.256Z,3.40
2022-10-11T07:11:30.466Z,3.43
2022-10-11T07:14:00.297Z,3.77
2022-10-11T07:16:29.370Z,3.90
2022-10-11T07:19:00.895Z,3.80
2022-10-11T07:21:30.133Z,3.50
2022-10-11T07:23:58.251Z,3.30
2022-10-11T07:26:27.976Z,3.60
2022-10-11T07:28:56.169Z,2.90
2022-10-11T07:31:25.897Z,3.83
2022-10-11T07:33:54.683Z,3.67
2022-10-11T07:36:24.162Z,2.90
2022-10-11T07:38:52.606Z,3.47
2022-10-11T07:41:20.774Z,3.17
2022-10-11T07:43:51.007Z,2.97
2022-10-11T07:46:19.543Z,3.23
2022-10-11T07:48:47.643Z,2.87
2022-10-11T07:51:18.005Z,2.53
2022-10-11T07:53:47.530Z,3.17
2022-10-11T07:56:17.790Z,2.67
2022-10-11T07:58:50.229Z,2.93
2022-10-11T08:01:20.117Z,2.83
2022-10-11T08:03:48.564Z,3.23
2022-10-11T08:06:19.477Z,3.10
2022-10-11T08:08:48.226Z,2.53
2022-10-11T08:11:22.279Z,2.20
2022-10-11T08:13:50.469Z,2.43
2022-10-11T08:16:20.606Z,2.50
2022-10-11T08:18:48.677Z,2.97
2022-10-11T08:21:18.809Z,2.57
2022-10-11T08:23:47.262Z,2.17
2022-10-11T08:26:15.857Z,2.77
2022-10-11T08:28:44.019Z,2.77
2022-10-11T08:31:14.609Z,2.23
2022-10-11T08:33:44.476Z,2.73
2022-10-11T08:36:13.989Z,2.27
2022-10-11T08:38:42.522Z,2.80
2022-10-11T08:41:27.755Z,2.53
2022-10-11T08:44:24.184Z,2.30
2022-10-11T08:47:00.415Z,1.97
2022-10-11T08:49:33.402Z,3.13
2022-10-11T08:52:04.613Z,2.40
2022-10-11T08:54:40.183Z,2.63
2022-10-11T08:57:13.150Z,1.90
2022-10-11T08:59:49.042Z,1.90
2022-10-11T09:03:02.903Z,1.70
2022-10-11T09:05:32.330Z,1.83
2022-10-11T09:08:08.138Z,2.00
2022-10-11T09:11:00.792Z,2.77
2022-10-11T09:13:53.072Z,2.20
2022-10-11T09:16:32.267Z,2.17
2022-10-11T09:19:20.198Z,2.47
2022-10-11T09:21:57.750Z,2.03
2022-10-11T09:24:45.736Z,1.90
2022-10-11T09:27:57.268Z,1.83
2022-10-11T09:30:21.523Z,2.30
2022-10-11T09:33:00.480Z,2.63
2022-10-11T09:35:30.190Z,1.80
2022-10-11T09:38:05.396Z,2.50
2022-10-11T09:40:44.495Z,3.73
2022-10-11T09:43:13.076Z,2.53
2022-10-11T09:45:49.125Z,2.10
2022-10-11T09:48:21.862Z,1.80
2022-10-11T09:50:51.506Z,1.93
2022-10-11T09:53:21.949Z,2.10
2022-10-11T09:55:54.117Z,2.30
2022-10-11T10:14:29.493Z,2.23
2022-10-11T10:17:06.769Z,1.70
2022-10-11T10:19:45.039Z,2.10
2022-10-11T10:22:20.523Z,1.53
2022-10-11T10:24:49.849Z,1.50
2022-10-11T10:27:22.025Z,1.73
2022-10-11T10:30:18.168Z,1.60
2022-10-11T10:32:53.258Z,1.73
2022-10-11T10:35:42.608Z,1.83
2022-10-11T10:38:17.264Z,1.80
2022-10-11T10:40:48.888Z,2.40
2022-10-11T10:43:19.231Z,1.43
2022-10-11T10:46:18.817Z,1.50
2022-10-11T10:51:55.011Z,1.33
2022-10-11T10:54:35.967Z,1.10
2022-10-11T10:57:11.134Z,1.40
2022-10-11T11:00:12.138Z,1.70
2022-10-11T11:02:51.610Z,1.63
2022-10-11T11:05:28.178Z,1.37
2022-10-11T11:08:05.097Z,1.40
2022-10-11T11:10:38.382Z,1.13
2022-10-11T11:13:19.944Z,1.43
2022-10-11T11:15:57.059Z,1.23
2022-10-11T11:18:33.675Z,1.07
2022-10-11T11:21:23.595Z,1.93
2022-10-11T11:24:02.695Z,1.93
2022-10-11T11:26:44.019Z,1.40
2022-10-11T11:29:23.864Z,1.50
2022-10-11T11:32:06.854Z,1.60
2022-10-11T11:34:41.387Z,1.57
2022-10-11T11:37:21.026Z,1.87
2022-10-11T11:39:52.120Z,1.40
2022-10-11T11:42:25.240Z,1.70
2022-10-11T11:44:54.400Z,1.50
2022-10-11T11:47:29.376Z,1.43
2022-10-11T11:50:01.135Z,1.50
2022-10-11T11:52:35.029Z,1.23
2022-10-11T11:55:10.851Z,1.57
2022-10-11T11:57:54.294Z,1.77
2022-10-11T12:00:25.250Z,1.20
2022-10-11T12:02:57.189Z,1.33
2022-10-11T12:05:30.663Z,1.30
2022-10-11T12:08:02.788Z,1.27
2022-10-11T12:10:36.912Z,0.90
2022-10-11T12:13:19.441Z,1.10
2022-10-11T12:16:02.494Z,1.10
2022-10-11T12:18:32.990Z,1.20
2022-10-11T12:21:08.658Z,1.30
2022-10-11T12:23:43.422Z,1.00
2022-10-11T12:26:41.199Z,0.70
2022-10-11T12:29:48.594Z,1.00
2022-10-11T12:32:51.156Z,0.80
2022-10-11T12:35:43.769Z,1.03
2022-10-11T12:38:21.051Z,0.80
2022-10-11T12:40:51.321Z,1.47
2022-10-11T12:43:37.436Z,0.80
2022-10-11T12:46:48.169Z,0.80
2022-10-11T12:49:33.262Z,1.10
2022-10-11T12:52:04.757Z,1.23
2022-10-11T12:54:56.329Z,1.20
2022-10-11T12:57:51.526Z,1.47
2022-10-11T13:00:26.082Z,1.07
2022-10-11T13:02:54.698Z,1.00
2022-10-11T13:05:26.886Z,1.50
2022-10-11T13:07:58.127Z,0.97
2022-10-11T13:10:31.982Z,0.70
2022-10-11T13:13:04.555Z,1.20
2022-10-11T13:15:33.156Z,1.23
2022-10-11T13:18:01.737Z,1.00
2022-10-11T13:20:31.838Z,1.30
2022-10-11T13:23:00.085Z,0.90
2022-10-11T13:25:30.998Z,1.20
2022-10-11T13:28:00.335Z,0.90
2022-10-11T13:30:30.994Z,1.10
2022-10-11T13:33:00.233Z,1.10
2022-10-11T13:35:32.460Z,1.10
2022-10-11T13:38:00.945Z,1.07
2022-10-11T13:40:32.189Z,1.20
2022-10-11T13:43:00.697Z,1.43
2022-10-11T13:45:31.453Z,1.20
2022-10-11T13:48:00.384Z,1.33
2022-10-11T13:50:32.387Z,1.20
2022-10-11T13:53:02.551Z,1.30
2022-10-11T13:55:35.304Z,1.60
2022-10-11T13:58:10.663Z,1.83
2022-10-11T14:00:41.643Z,1.20
2022-10-11T14:03:20.070Z,1.73
2022-10-11T14:05:56.153Z,1.20
2022-10-11T14:08:30.121Z,1.33
2022-10-11T14:11:05.833Z,1.47
2022-10-11T14:13:37.551Z,1.43
2022-10-11T14:16:08.716Z,1.70
2022-10-11T14:18:48.355Z,1.27
2022-10-11T14:21:30.123Z,1.53
2022-10-11T14:24:00.194Z,1.33
2022-10-11T14:26:35.098Z,1.43
2022-10-11T14:29:06.793Z,2.57
2022-10-11T14:31:40.594Z,1.83
2022-10-11T14:34:16.552Z,1.50
2022-10-11T14:36:44.685Z,1.30
2022-10-11T14:39:16.225Z,1.70
2022-10-11T14:41:46.209Z,1.13
2022-10-11T14:44:14.401Z,1.70
2022-10-11T14:46:42.888Z,1.50
2022-10-11T14:49:15.583Z,1.90
2022-10-11T14:51:45.652Z,1.50
2022-10-11T14:54:14.723Z,1.53
2022-10-11T14:56:43.079Z,1.60
2022-10-11T14:59:15.241Z,1.57
2022-10-11T15:01:44.386Z,1.67
2022-10-11T15:04:12.519Z,1.80
2022-10-11T15:06:41.965Z,1.63
2022-10-11T15:09:10.179Z,1.90
2022-10-11T15:11:39.043Z,1.73
2022-10-11T15:14:08.017Z,2.30
2022-10-11T15:16:37.518Z,1.67
2022-10-11T15:19:05.521Z,2.00
2022-10-11T15:21:35.373Z,2.40
2022-10-11T15:24:03.443Z,2.27
2022-10-11T15:26:31.563Z,2.23
2022-10-11T15:28:59.674Z,2.10
2022-10-11T15:31:27.908Z,2.17
2022-10-11T15:33:59.514Z,2.10
2022-10-11T15:36:28.730Z,2.20
2022-10-11T15:38:57.252Z,2.53
2022-10-11T15:41:25.420Z,2.40
2022-10-11T15:43:53.477Z,2.23
2022-10-11T15:46:23.344Z,2.20
2022-10-11T15:48:52.494Z,2.30
2022-10-11T15:51:21.982Z,2.03
2022-10-11T15:53:50.542Z,2.33
2022-10-11T15:56:19.650Z,2.40
2022-10-11T15:58:47.675Z,2.63
2022-10-11T16:01:17.473Z,4.33
2022-10-11T16:03:46.769Z,4.37
2022-10-11T16:06:14.828Z,4.13
2022-10-11T16:08:44.597Z,4.50
2022-10-11T16:11:13.069Z,4.90
2022-10-11T16:13:41.130Z,6.57
2022-10-11T16:16:10.442Z,8.77
2022-10-11T16:18:38.965Z,7.93
2022-10-11T16:21:09.381Z,7.33
2022-10-11T16:23:37.977Z,6.30
2022-10-11T16:26:10.413Z,5.50
2022-10-11T16:28:39.134Z,4.97
2022-10-11T16:31:08.219Z,4.80
2022-10-11T16:33:45.271Z,4.20
2022-10-11T16:36:31.864Z,5.00
2022-10-11T16:39:00.404Z,6.47
2022-10-11T16:41:29.749Z,9.57
2022-10-11T16:43:57.795Z,9.87
2022-10-11T16:46:25.893Z,9.03
2022-10-11T16:48:55.325Z,9.87
2022-10-11T16:51:26.944Z,9.03
2022-10-11T16:53:55.558Z,7.13
2022-10-11T16:56:25.199Z,7.23
2022-10-11T16:58:57.981Z,6.40
2022-10-11T17:01:26.673Z,5.63
2022-10-11T17:03:55.750Z,5.27
2022-10-11T17:06:24.853Z,7.30
2022-10-11T17:08:54.017Z,14.20
2022-10-11T17:11:22.599Z,21.60
2022-10-11T17:13:53.379Z,26.90
2022-10-11T17:16:23.425Z,25.77
2022-10-11T17:18:52.039Z,25.23
2022-10-11T17:21:22.062Z,27.17
2022-10-11T17:23:50.434Z,21.23
2022-10-11T17:26:20.232Z,17.37
2022-10-11T17:28:48.687Z,12.17
2022-10-11T17:31:16.858Z,10.40
2022-10-11T17:33:46.339Z,8.80
2022-10-11T17:36:17.571Z,8.10
2022-10-11T17:38:45.607Z,9.57
2022-10-11T17:41:13.703Z,8.23
2022-10-11T17:43:41.705Z,8.90
2022-10-11T17:46:11.583Z,10.73
2022-10-11T17:48:40.211Z,8.60
2022-10-11T17:51:12.131Z,10.07
2022-10-11T17:53:41.025Z,10.63
2022-10-11T17:56:10.947Z,11.20
2022-10-11T17:58:39.693Z,11.43
2022-10-11T18:01:10.823Z,12.77
2022-10-11T18:03:39.541Z,12.90
2022-10-11T18:06:10.884Z,11.83
2022-10-11T18:08:40.837Z,11.07
2022-10-11T18:11:12.529Z,10.73
2022-10-11T18:13:43.458Z,10.90
2022-10-11T18:16:12.015Z,11.03
2022-10-11T18:18:40.992Z,12.37
2022-10-11T18:21:10.669Z,12.10
2022-10-11T18:23:39.281Z,12.00
2022-10-11T18:26:12.368Z,11.37
2022-10-11T18:28:41.664Z,12.13
2022-10-11T18:31:13.283Z,12.60
2022-10-11T18:33:42.530Z,12.60
2022-10-11T18:36:13.619Z,13.53
2022-10-11T18:38:46.732Z,15.13
2022-10-11T18:41:18.390Z,14.50
2022-10-11T18:43:50.778Z,13.67
2022-10-11T18:46:19.787Z,13.07
2022-10-11T18:48:49.687Z,13.40
2022-10-11T18:51:21.239Z,12.93
2022-10-11T18:53:49.605Z,12.07
2022-10-11T18:56:20.551Z,12.13
2022-10-11T18:58:49.701Z,13.07
2022-10-11T19:01:20.342Z,12.93
2022-10-11T19:03:50.369Z,13.63
2022-10-11T19:06:22.169Z,14.87
2022-10-11T19:08:51.917Z,14.73
2022-10-11T19:11:21.824Z,14.27
2022-10-11T19:13:55.743Z,14.93
2022-10-11T19:16:24.203Z,13.80
2022-10-11T19:18:53.417Z,14.17
2022-10-11T19:21:23.311Z,14.60
2022-10-11T19:23:51.531Z,15.20
2022-10-11T19:26:22.415Z,15.27
2022-10-11T19:28:56.166Z,13.97
2022-10-11T19:31:24.389Z,14.83
2022-10-11T19:33:52.510Z,14.17
2022-10-11T19:36:22.013Z,15.33
2022-10-11T19:38:51.696Z,14.27
2022-10-11T19:41:21.279Z,15.30
2022-10-11T19:43:49.366Z,15.33
2022-10-11T19:46:38.045Z,15.33
2022-10-11T19:49:08.770Z,14.83
2022-10-11T19:51:38.284Z,15.07
2022-10-11T19:54:08.747Z,15.97
2022-10-11T19:56:37.102Z,15.00
2022-10-11T19:59:07.397Z,15.90
2022-10-11T20:01:37.325Z,15.30
2022-10-11T20:04:07.570Z,14.10
2022-10-11T20:06:40.211Z,14.13
2022-10-11T20:11:56.663Z,13.33
2022-10-11T20:14:24.944Z,12.60
2022-10-11T20:16:53.065Z,13.07
2022-10-11T20:19:26.318Z,12.57
2022-10-11T20:21:57.449Z,12.30
2022-10-11T20:24:27.427Z,11.80
2022-10-11T20:26:55.723Z,12.30
2022-10-11T20:29:25.324Z,13.17
2022-10-11T20:31:53.401Z,12.90
2022-10-11T20:34:21.481Z,12.40
2022-10-11T20:36:49.626Z,12.73
2022-10-11T20:39:19.131Z,12.87
2022-10-11T20:41:47.238Z,10.90
2022-10-11T20:44:16.186Z,10.70
2022-10-11T20:46:44.296Z,11.87
2022-10-11T20:49:14.817Z,11.27
2022-10-11T20:51:43.776Z,10.67
2022-10-11T20:54:12.252Z,11.97
2022-10-11T20:56:41.835Z,10.23
2022-10-11T20:59:10.868Z,10.47
2022-10-11T21:01:41.101Z,10.77
2022-10-11T21:04:15.522Z,10.50
2022-10-11T21:06:43.525Z,10.40
2022-10-11T21:09:14.053Z,10.43
2022-10-11T21:11:46.550Z,10.20
2022-10-11T21:14:14.683Z,10.37
2022-10-11T21:16:42.811Z,10.67
2022-10-11T21:19:14.514Z,8.93
2022-10-11T21:21:42.813Z,8.20
2022-10-11T21:24:11.136Z,8.43
2022-10-11T21:26:39.222Z,7.87
2022-10-11T21:29:08.761Z,7.27
2022-10-11T21:31:36.906Z,7.43
2022-10-11T21:34:07.339Z,7.43
2022-10-11T21:36:35.807Z,8.00
2022-10-11T21:39:04.007Z,8.47
2022-10-11T21:41:33.893Z,7.63
2022-10-11T21:44:02.079Z,7.57
2022-10-11T21:46:54.459Z,8.07
2022-10-11T21:49:21.044Z,7.50
2022-10-11T21:51:49.080Z,9.47
2022-10-11T21:54:17.698Z,7.80
2022-10-11T21:56:45.724Z,7.77
2022-10-11T21:59:14.115Z,7.47
2022-10-11T22:01:44.478Z,6.90
2022-10-11T22:04:12.715Z,6.60
2022-10-11T22:06:41.196Z,6.60
2022-10-11T22:09:09.924Z,7.90
2022-10-11T22:11:38.686Z,7.60
2022-10-11T22:14:06.959Z,7.23
2022-10-11T22:16:35.757Z,8.27
2022-10-11T22:19:05.472Z,8.20
2022-10-11T22:21:33.763Z,8.67
2022-10-11T22:24:01.753Z,8.70
2022-10-11T22:26:31.669Z,7.80
2022-10-11T22:29:00.316Z,6.57
2022-10-11T22:31:30.118Z,6.63
2022-10-11T22:33:59.639Z,6.67
2022-10-11T22:36:30.435Z,6.80
2022-10-11T22:38:58.973Z,6.43
2022-10-11T22:41:27.146Z,6.77
2022-10-11T22:43:55.229Z,6.30
2022-10-11T22:46:23.302Z,5.77
2022-10-11T22:48:51.440Z,5.33
2022-10-11T22:51:19.614Z,5.57
2022-10-11T22:53:49.080Z,5.13
2022-10-11T22:56:17.117Z,5.03
2022-10-11T22:58:45.659Z,4.47
2022-10-11T23:01:15.794Z,4.83
2022-10-11T23:03:44.039Z,4.40
2022-10-11T23:06:12.175Z,4.17
2022-10-11T23:08:40.263Z,4.23
2022-10-11T23:11:09.680Z,4.63
2022-10-11T23:13:37.791Z,4.17
2022-10-11T23:16:09.978Z,4.17
2022-10-11T23:18:38.388Z,4.30
2022-10-11T23:21:07.689Z,3.87
2022-10-11T23:23:36.040Z,4.30
2022-10-11T23:26:06.769Z,4.10
2022-10-11T23:28:36.850Z,4.07
2022-10-11T23:31:09.345Z,3.83
2022-10-11T23:33:37.441Z,4.17
2022-10-11T23:36:05.821Z,3.50
2022-10-11T23:38:33.852Z,3.53
2022-10-11T23:41:01.890Z,3.27
2022-10-11T23:43:30.374Z,3.57
2022-10-11T23:46:00.384Z,4.43
2022-10-11T23:48:28.440Z,3.40
2022-10-11T23:50:56.474Z,3.83
2022-10-11T23:53:24.749Z,3.60
2022-10-11T23:55:52.843Z,3.30
2022-10-11T23:58:20.980Z,3.37
